sensor_id;sensor_type;location;lat;lon;timestamp;pressure;altitude;pressure_sealevel;temperature;humidity
75538;BME280;64121;48.666;8.114;2023-04-16T00:02:07;100128.69;;;8.87;95.23
75538;BME280;64121;48.666;8.114;2023-04-16T00:04:32;100131.84;;;8.76;96.47
75538;BME280;64121;48.666;8.114;2023-04-16T00:06:59;100130.06;;;8.72;97.50
75538;BME280;64121;48.666;8.114;2023-04-16T00:09:24;100129.09;;;8.68;97.08
75538;BME280;64121;48.666;8.114;2023-04-16T00:11:50;100123.84;;;8.75;97.19
75538;BME280;64121;48.666;8.114;2023-04-16T00:14:15;100132.06;;;8.63;97.63
75538;BME280;64121;48.666;8.114;2023-04-16T00:16:40;100131.38;;;8.66;96.50
75538;BME280;64121;48.666;8.114;2023-04-16T00:19:06;100125.16;;;8.69;96.04
75538;BME280;64121;48.666;8.114;2023-04-16T00:21:31;100133.34;;;8.74;96.49
75538;BME280;64121;48.666;8.114;2023-04-16T00:23:58;100144.59;;;8.69;97.99
75538;BME280;64121;48.666;8.114;2023-04-16T00:26:23;100137.59;;;8.63;98.31
75538;BME280;64121;48.666;8.114;2023-04-16T00:28:48;100139.25;;;8.55;98.63
75538;BME280;64121;48.666;8.114;2023-04-16T00:31:14;100143.00;;;8.59;97.96
75538;BME280;64121;48.666;8.114;2023-04-16T00:33:39;100138.28;;;8.60;97.82
75538;BME280;64121;48.666;8.114;2023-04-16T00:36:05;100138.41;;;8.63;97.07
75538;BME280;64121;48.666;8.114;2023-04-16T00:38:30;100138.41;;;8.63;98.11
75538;BME280;64121;48.666;8.114;2023-04-16T00:40:57;100138.59;;;8.58;97.46
75538;BME280;64121;48.666;8.114;2023-04-16T00:43:23;100139.72;;;8.66;97.04
75538;BME280;64121;48.666;8.114;2023-04-16T00:45:49;100137.41;;;8.68;97.10
75538;BME280;64121;48.666;8.114;2023-04-16T00:48:15;100132.19;;;8.66;97.35
75538;BME280;64121;48.666;8.114;2023-04-16T00:50:40;100131.59;;;8.61;97.16
75538;BME280;64121;48.666;8.114;2023-04-16T00:53:05;100128.00;;;8.60;97.64
75538;BME280;64121;48.666;8.114;2023-04-16T00:55:31;100136.16;;;8.57;97.97
75538;BME280;64121;48.666;8.114;2023-04-16T00:57:57;100137.00;;;8.48;98.92
75538;BME280;64121;48.666;8.114;2023-04-16T01:00:23;100138.81;;;8.44;98.74
75538;BME280;64121;48.666;8.114;2023-04-16T01:02:48;100137.66;;;8.45;98.42
75538;BME280;64121;48.666;8.114;2023-04-16T01:05:13;100142.69;;;8.52;98.14
75538;BME280;64121;48.666;8.114;2023-04-16T01:07:39;100144.63;;;8.60;97.45
75538;BME280;64121;48.666;8.114;2023-04-16T01:10:05;100138.41;;;8.63;96.66
75538;BME280;64121;48.666;8.114;2023-04-16T01:12:30;100143.16;;;8.63;97.62
75538;BME280;64121;48.666;8.114;2023-04-16T01:14:57;100142.69;;;8.61;98.05
75538;BME280;64121;48.666;8.114;2023-04-16T01:17:23;100148.09;;;8.48;98.70
75538;BME280;64121;48.666;8.114;2023-04-16T01:19:48;100149.56;;;8.46;98.95
75538;BME280;64121;48.666;8.114;2023-04-16T01:22:14;100148.94;;;8.40;98.90
75538;BME280;64121;48.666;8.114;2023-04-16T01:24:40;100153.19;;;8.38;98.03
75538;BME280;64121;48.666;8.114;2023-04-16T01:27:05;100149.91;;;8.44;96.94
75538;BME280;64121;48.666;8.114;2023-04-16T01:29:30;100152.16;;;8.51;96.57
75538;BME280;64121;48.666;8.114;2023-04-16T01:31:56;100149.38;;;8.51;96.87
75538;BME280;64121;48.666;8.114;2023-04-16T01:34:21;100148.72;;;8.54;96.65
75538;BME280;64121;48.666;8.114;2023-04-16T01:36:46;100161.44;;;8.55;96.85
75538;BME280;64121;48.666;8.114;2023-04-16T01:39:13;100155.25;;;8.58;97.00
75538;BME280;64121;48.666;8.114;2023-04-16T01:41:38;100159.97;;;8.58;97.78
75538;BME280;64121;48.666;8.114;2023-04-16T01:44:04;100163.25;;;8.51;98.51
75538;BME280;64121;48.666;8.114;2023-04-16T01:46:31;100157.69;;;8.51;98.42
75538;BME280;64121;48.666;8.114;2023-04-16T01:48:57;100157.53;;;8.56;98.20
75538;BME280;64121;48.666;8.114;2023-04-16T01:51:22;100147.41;;;8.52;97.71
75538;BME280;64121;48.666;8.114;2023-04-16T01:53:48;100163.56;;;8.58;97.90
75538;BME280;64121;48.666;8.114;2023-04-16T01:56:14;100165.06;;;8.56;97.57
75538;BME280;64121;48.666;8.114;2023-04-16T01:58:40;100160.81;;;8.49;98.00
75538;BME280;64121;48.666;8.114;2023-04-16T02:01:05;100161.47;;;8.46;97.99
75538;BME280;64121;48.666;8.114;2023-04-16T02:03:31;100168.81;;;8.42;98.06
75538;BME280;64121;48.666;8.114;2023-04-16T02:05:56;100169.81;;;8.38;98.89
75538;BME280;64121;48.666;8.114;2023-04-16T02:08:22;100167.69;;;8.43;97.91
75538;BME280;64121;48.666;8.114;2023-04-16T02:10:48;100166.72;;;8.39;97.77
75538;BME280;64121;48.666;8.114;2023-04-16T02:13:15;100164.91;;;8.43;97.45
75538;BME280;64121;48.666;8.114;2023-04-16T02:15:43;100169.47;;;8.48;96.82
75538;BME280;64121;48.666;8.114;2023-04-16T02:18:09;100174.34;;;8.51;97.41
75538;BME280;64121;48.666;8.114;2023-04-16T02:20:34;100170.59;;;8.47;97.85
75538;BME280;64121;48.666;8.114;2023-04-16T02:23:03;100170.28;;;8.48;97.31
75538;BME280;64121;48.666;8.114;2023-04-16T02:25:28;100178.75;;;8.52;96.81
75538;BME280;64121;48.666;8.114;2023-04-16T02:27:54;100166.69;;;8.57;96.83
75538;BME280;64121;48.666;8.114;2023-04-16T02:30:20;100164.06;;;8.52;96.51
75538;BME280;64121;48.666;8.114;2023-04-16T02:32:46;100173.22;;;8.43;97.13
75538;BME280;64121;48.666;8.114;2023-04-16T02:35:11;100170.31;;;8.40;97.84
75538;BME280;64121;48.666;8.114;2023-04-16T02:37:36;100179.59;;;8.35;98.31
75538;BME280;64121;48.666;8.114;2023-04-16T02:40:02;100174.53;;;8.29;98.54
75538;BME280;64121;48.666;8.114;2023-04-16T02:42:27;100178.13;;;8.20;98.93
75538;BME280;64121;48.666;8.114;2023-04-16T02:44:53;100179.59;;;8.18;99.21
75538;BME280;64121;48.666;8.114;2023-04-16T02:47:19;100181.06;;;8.15;100.00
75538;BME280;64121;48.666;8.114;2023-04-16T02:49:44;100178.63;;;8.14;100.00
75538;BME280;64121;48.666;8.114;2023-04-16T02:52:10;100182.69;;;8.16;100.00
75538;BME280;64121;48.666;8.114;2023-04-16T02:54:35;100184.97;;;8.14;100.00
75538;BME280;64121;48.666;8.114;2023-04-16T02:57:00;100175.69;;;8.10;100.00
75538;BME280;64121;48.666;8.114;2023-04-16T02:59:26;100180.91;;;8.20;99.95
75538;BME280;64121;48.666;8.114;2023-04-16T03:01:51;100175.19;;;8.26;98.84
75538;BME280;64121;48.666;8.114;2023-04-16T03:04:18;100176.47;;;8.28;97.97
75538;BME280;64121;48.666;8.114;2023-04-16T03:06:43;100173.72;;;8.28;98.59
75538;BME280;64121;48.666;8.114;2023-04-16T03:09:08;100180.88;;;8.29;98.74
75538;BME280;64121;48.666;8.114;2023-04-16T03:11:34;100174.19;;;8.30;99.40
75538;BME280;64121;48.666;8.114;2023-04-16T03:13:59;100179.09;;;8.25;99.73
75538;BME280;64121;48.666;8.114;2023-04-16T03:16:24;100180.59;;;8.22;99.80
75538;BME280;64121;48.666;8.114;2023-04-16T03:18:50;100185.13;;;8.27;98.95
75538;BME280;64121;48.666;8.114;2023-04-16T03:21:17;100175.81;;;8.31;98.87
75538;BME280;64121;48.666;8.114;2023-04-16T03:23:42;100182.06;;;8.37;98.35
75538;BME280;64121;48.666;8.114;2023-04-16T03:26:08;100178.97;;;8.38;97.69
75538;BME280;64121;48.666;8.114;2023-04-16T03:28:33;100172.09;;;8.36;98.06
75538;BME280;64121;48.666;8.114;2023-04-16T03:30:58;100174.03;;;8.35;97.78
75538;BME280;64121;48.666;8.114;2023-04-16T03:33:24;100180.22;;;8.32;98.45
75538;BME280;64121;48.666;8.114;2023-04-16T03:35:55;100180.06;;;8.29;98.11
75538;BME280;64121;48.666;8.114;2023-04-16T03:38:22;100179.91;;;8.25;98.30
75538;BME280;64121;48.666;8.114;2023-04-16T03:40:47;100184.50;;;8.21;98.86
75538;BME280;64121;48.666;8.114;2023-04-16T03:43:12;100179.59;;;8.09;99.38
75538;BME280;64121;48.666;8.114;2023-04-16T03:45:42;100184.66;;;8.16;99.19
75538;BME280;64121;48.666;8.114;2023-04-16T03:48:08;100185.31;;;8.22;98.89
75538;BME280;64121;48.666;8.114;2023-04-16T03:50:33;100187.28;;;8.21;98.79
75538;BME280;64121;48.666;8.114;2023-04-16T03:52:58;100193.78;;;8.25;98.89
75538;BME280;64121;48.666;8.114;2023-04-16T03:55:25;100193.63;;;8.22;99.25
75538;BME280;64121;48.666;8.114;2023-04-16T03:57:50;100193.28;;;8.23;98.54
75538;BME280;64121;48.666;8.114;2023-04-16T04:00:16;100188.22;;;8.25;98.63
75538;BME280;64121;48.666;8.114;2023-04-16T04:02:41;100184.16;;;8.23;98.39
75538;BME280;64121;48.666;8.114;2023-04-16T04:05:07;100185.13;;;8.27;98.17
75538;BME280;64121;48.666;8.114;2023-04-16T04:07:32;100188.22;;;8.25;99.38
75538;BME280;64121;48.666;8.114;2023-04-16T04:09:57;100189.03;;;8.26;98.99
75538;BME280;64121;48.666;8.114;2023-04-16T04:12:24;100190.00;;;8.30;98.33
75538;BME280;64121;48.666;8.114;2023-04-16T04:14:49;100190.16;;;8.33;97.72
75538;BME280;64121;48.666;8.114;2023-04-16T04:17:15;100195.72;;;8.33;97.52
75538;BME280;64121;48.666;8.114;2023-04-16T04:19:40;100191.81;;;8.34;97.85
75538;BME280;64121;48.666;8.114;2023-04-16T04:22:05;100194.25;;;8.36;98.45
75538;BME280;64121;48.666;8.114;2023-04-16T04:24:31;100198.66;;;8.28;99.51
75538;BME280;64121;48.666;8.114;2023-04-16T04:26:56;100204.38;;;8.23;99.18
75538;BME280;64121;48.666;8.114;2023-04-16T04:29:23;100212.84;;;8.27;98.85
75538;BME280;64121;48.666;8.114;2023-04-16T04:31:48;100208.28;;;8.31;98.65
75538;BME280;64121;48.666;8.114;2023-04-16T04:34:13;100205.34;;;8.27;98.28
75538;BME280;64121;48.666;8.114;2023-04-16T04:36:39;100212.69;;;8.32;98.65
75538;BME280;64121;48.666;8.114;2023-04-16T04:39:04;100220.03;;;8.28;98.68
75538;BME280;64121;48.666;8.114;2023-04-16T04:41:29;100215.63;;;8.27;98.44
75538;BME280;64121;48.666;8.114;2023-04-16T04:43:55;100220.84;;;8.28;98.10
75538;BME280;64121;48.666;8.114;2023-04-16T04:46:22;100217.72;;;8.30;97.50
75538;BME280;64121;48.666;8.114;2023-04-16T04:48:47;100219.56;;;8.34;97.87
75538;BME280;64121;48.666;8.114;2023-04-16T04:51:12;100223.78;;;8.23;99.11
75538;BME280;64121;48.666;8.114;2023-04-16T04:53:37;100224.13;;;8.22;99.69
75538;BME280;64121;48.666;8.114;2023-04-16T04:56:03;100230.81;;;8.20;100.00
75538;BME280;64121;48.666;8.114;2023-04-16T04:58:28;100231.63;;;8.21;99.73
75538;BME280;64121;48.666;8.114;2023-04-16T05:00:54;100237.50;;;8.19;99.74
75538;BME280;64121;48.666;8.114;2023-04-16T05:03:20;100231.63;;;8.21;99.03
75538;BME280;64121;48.666;8.114;2023-04-16T05:05:46;100236.16;;;8.17;99.07
75538;BME280;64121;48.666;8.114;2023-04-16T05:08:12;100239.94;;;8.21;99.12
75538;BME280;64121;48.666;8.114;2023-04-16T05:10:37;100246.63;;;8.20;99.27
75538;BME280;64121;48.666;8.114;2023-04-16T05:13:02;100241.41;;;8.18;99.25
75538;BME280;64121;48.666;8.114;2023-04-16T05:15:28;100240.56;;;8.18;99.59
75538;BME280;64121;48.666;8.114;2023-04-16T05:17:53;100248.56;;;8.19;99.68
75538;BME280;64121;48.666;8.114;2023-04-16T05:20:21;100247.25;;;8.17;99.55
75538;BME280;64121;48.666;8.114;2023-04-16T05:22:46;100252.66;;;8.22;99.10
75538;BME280;64121;48.666;8.114;2023-04-16T05:25:11;100257.06;;;8.23;98.91
75538;BME280;64121;48.666;8.114;2023-04-16T05:27:36;100258.69;;;8.24;99.33
75538;BME280;64121;48.666;8.114;2023-04-16T05:30:02;100265.19;;;8.28;98.68
75538;BME280;64121;48.666;8.114;2023-04-16T05:32:27;100266.16;;;8.32;98.34
75538;BME280;64121;48.666;8.114;2023-04-16T05:34:53;100270.75;;;8.19;99.55
75538;BME280;64121;48.666;8.114;2023-04-16T05:37:19;100274.16;;;8.16;99.14
75538;BME280;64121;48.666;8.114;2023-04-16T05:39:45;100275.47;;;8.19;99.00
75538;BME280;64121;48.666;8.114;2023-04-16T05:42:10;100281.50;;;8.21;99.00
75538;BME280;64121;48.666;8.114;2023-04-16T05:44:35;100282.47;;;8.25;98.39
75538;BME280;64121;48.666;8.114;2023-04-16T05:47:00;100277.75;;;8.26;98.72
75538;BME280;64121;48.666;8.114;2023-04-16T05:49:26;100290.47;;;8.27;98.37
75538;BME280;64121;48.666;8.114;2023-04-16T05:51:51;100290.13;;;8.28;97.59
75538;BME280;64121;48.666;8.114;2023-04-16T05:54:18;100292.91;;;8.28;97.11
75538;BME280;64121;48.666;8.114;2023-04-16T05:56:43;100293.56;;;8.25;98.63
75538;BME280;64121;48.666;8.114;2023-04-16T05:59:08;100293.41;;;8.22;99.23
75538;BME280;64121;48.666;8.114;2023-04-16T06:01:34;100295.19;;;8.17;99.28
75538;BME280;64121;48.666;8.114;2023-04-16T06:03:59;100304.50;;;8.22;99.23
75538;BME280;64121;48.666;8.114;2023-04-16T06:06:24;100305.47;;;8.26;98.58
75538;BME280;64121;48.666;8.114;2023-04-16T06:08:50;100306.13;;;8.31;98.28
75538;BME280;64121;48.666;8.114;2023-04-16T06:11:16;100312.47;;;8.32;97.94
75538;BME280;64121;48.666;8.114;2023-04-16T06:13:42;100314.75;;;8.30;98.09
75538;BME280;64121;48.666;8.114;2023-04-16T06:16:07;100311.19;;;8.29;98.38
75538;BME280;64121;48.666;8.114;2023-04-16T06:18:32;100316.59;;;8.34;97.91
75538;BME280;64121;48.666;8.114;2023-04-16T06:20:58;100324.72;;;8.31;97.97
75538;BME280;64121;48.666;8.114;2023-04-16T06:23:23;100313.94;;;8.29;98.27
75538;BME280;64121;48.666;8.114;2023-04-16T06:25:48;100319.16;;;8.31;97.97
75538;BME280;64121;48.666;8.114;2023-04-16T06:28:15;100318.69;;;8.29;98.41
75538;BME280;64121;48.666;8.114;2023-04-16T06:30:40;100325.84;;;8.30;97.95
75538;BME280;64121;48.666;8.114;2023-04-16T06:33:06;100331.56;;;8.33;98.10
75538;BME280;64121;48.666;8.114;2023-04-16T06:35:31;100331.56;;;8.33;99.13
75538;BME280;64121;48.666;8.114;2023-04-16T06:37:56;100331.41;;;8.30;99.34
75538;BME280;64121;48.666;8.114;2023-04-16T06:40:22;100335.97;;;8.26;99.72
75538;BME280;64121;48.666;8.114;2023-04-16T06:42:47;100334.00;;;8.26;99.22
75538;BME280;64121;48.666;8.114;2023-04-16T06:45:14;100334.50;;;8.28;99.82
75538;BME280;64121;48.666;8.114;2023-04-16T06:47:39;100335.38;;;8.37;99.43
75538;BME280;64121;48.666;8.114;2023-04-16T06:50:05;100334.97;;;8.30;98.35
75538;BME280;64121;48.666;8.114;2023-04-16T06:52:31;100334.81;;;8.27;98.46
75538;BME280;64121;48.666;8.114;2023-04-16T06:54:57;100339.06;;;8.33;98.33
75538;BME280;64121;48.666;8.114;2023-04-16T06:57:22;100340.19;;;8.32;98.23
75538;BME280;64121;48.666;8.114;2023-04-16T06:59:48;100341.66;;;8.29;98.09
75538;BME280;64121;48.666;8.114;2023-04-16T07:02:14;100341.19;;;8.27;98.01
75538;BME280;64121;48.666;8.114;2023-04-16T07:04:40;100347.53;;;8.28;98.19
75538;BME280;64121;48.666;8.114;2023-04-16T07:07:05;100341.19;;;8.27;98.44
75538;BME280;64121;48.666;8.114;2023-04-16T07:09:30;100348.53;;;8.32;98.39
75538;BME280;64121;48.666;8.114;2023-04-16T07:11:56;100349.50;;;8.27;99.41
75538;BME280;64121;48.666;8.114;2023-04-16T07:14:21;100342.22;;;8.40;99.38
75538;BME280;64121;48.666;8.114;2023-04-16T07:16:47;100345.00;;;8.40;98.92
75538;BME280;64121;48.666;8.114;2023-04-16T07:19:13;100345.47;;;8.42;98.52
75538;BME280;64121;48.666;8.114;2023-04-16T07:21:39;100349.88;;;8.43;98.05
75538;BME280;64121;48.666;8.114;2023-04-16T07:24:04;100353.47;;;8.43;98.68
75538;BME280;64121;48.666;8.114;2023-04-16T07:26:30;100346.28;;;8.42;99.36
75538;BME280;64121;48.666;8.114;2023-04-16T07:28:55;100349.06;;;8.42;99.17
75538;BME280;64121;48.666;8.114;2023-04-16T07:31:20;100348.25;;;8.42;98.24
75538;BME280;64121;48.666;8.114;2023-04-16T07:33:46;100348.56;;;8.40;97.94
75538;BME280;64121;48.666;8.114;2023-04-16T07:36:12;100350.53;;;8.40;98.03
75538;BME280;64121;48.666;8.114;2023-04-16T07:38:38;100354.59;;;8.51;98.12
75538;BME280;64121;48.666;8.114;2023-04-16T07:41:03;100357.06;;;8.44;98.52
75538;BME280;64121;48.666;8.114;2023-04-16T07:43:28;100358.84;;;8.57;98.21
75538;BME280;64121;48.666;8.114;2023-04-16T07:45:54;100367.16;;;8.48;98.58
75538;BME280;64121;48.666;8.114;2023-04-16T07:48:20;100364.88;;;8.50;97.90
75538;BME280;64121;48.666;8.114;2023-04-16T07:50:46;100357.03;;;8.53;97.37
75538;BME280;64121;48.666;8.114;2023-04-16T07:53:12;100356.91;;;8.58;97.14
75538;BME280;64121;48.666;8.114;2023-04-16T07:55:38;100362.59;;;8.61;96.93
75538;BME280;64121;48.666;8.114;2023-04-16T07:58:03;100362.09;;;8.68;96.40
75538;BME280;64121;48.666;8.114;2023-04-16T08:00:28;100369.44;;;8.72;96.61
75538;BME280;64121;48.666;8.114;2023-04-16T08:02:54;100368.00;;;8.75;96.42
75538;BME280;64121;48.666;8.114;2023-04-16T08:05:19;100377.78;;;8.81;95.98
75538;BME280;64121;48.666;8.114;2023-04-16T08:07:45;100375.97;;;8.85;95.50
75538;BME280;64121;48.666;8.114;2023-04-16T08:10:12;100383.31;;;8.90;95.32
75538;BME280;64121;48.666;8.114;2023-04-16T08:12:37;100386.91;;;8.99;95.79
75538;BME280;64121;48.666;8.114;2023-04-16T08:15:03;100393.91;;;9.05;95.56
75538;BME280;64121;48.666;8.114;2023-04-16T08:17:28;100390.78;;;9.06;95.75
75538;BME280;64121;48.666;8.114;2023-04-16T08:19:54;100398.47;;;9.09;95.69
75538;BME280;64121;48.666;8.114;2023-04-16T08:22:19;100397.34;;;9.02;95.97
75538;BME280;64121;48.666;8.114;2023-04-16T08:24:44;100398.78;;;9.08;94.59
75538;BME280;64121;48.666;8.114;2023-04-16T08:27:11;100402.22;;;9.05;94.71
75538;BME280;64121;48.666;8.114;2023-04-16T08:29:36;100414.63;;;9.07;94.32
75538;BME280;64121;48.666;8.114;2023-04-16T08:32:02;100412.53;;;9.04;94.40
75538;BME280;64121;48.666;8.114;2023-04-16T08:34:27;100418.41;;;9.03;94.16
75538;BME280;64121;48.666;8.114;2023-04-16T08:36:52;100419.53;;;9.02;94.34
75538;BME280;64121;48.666;8.114;2023-04-16T08:39:18;100426.25;;;9.01;94.70
75538;BME280;64121;48.666;8.114;2023-04-16T08:41:45;100422.34;;;8.93;94.78
75538;BME280;64121;48.666;8.114;2023-04-16T08:44:14;100418.56;;;8.89;94.10
75538;BME280;64121;48.666;8.114;2023-04-16T08:46:43;100418.75;;;8.93;94.34
75538;BME280;64121;48.666;8.114;2023-04-16T08:49:14;100424.63;;;9.00;94.77
75538;BME280;64121;48.666;8.114;2023-04-16T08:51:42;100435.88;;;9.03;94.21
75538;BME280;64121;48.666;8.114;2023-04-16T08:54:11;100424.44;;;9.05;94.64
75538;BME280;64121;48.666;8.114;2023-04-16T08:56:40;100434.25;;;9.11;94.39
75538;BME280;64121;48.666;8.114;2023-04-16T08:59:06;100436.03;;;9.16;94.76
75538;BME280;64121;48.666;8.114;2023-04-16T09:01:35;100433.91;;;9.13;94.35
75538;BME280;64121;48.666;8.114;2023-04-16T09:04:01;100439.47;;;9.13;94.76
75538;BME280;64121;48.666;8.114;2023-04-16T09:06:27;100438.47;;;9.17;94.96
75538;BME280;64121;48.666;8.114;2023-04-16T09:08:52;100430.78;;;9.31;94.50
75538;BME280;64121;48.666;8.114;2023-04-16T09:11:18;100438.91;;;9.45;94.16
75538;BME280;64121;48.666;8.114;2023-04-16T09:13:45;100437.44;;;9.48;93.92
75538;BME280;64121;48.666;8.114;2023-04-16T09:16:11;100433.03;;;9.55;94.89
75538;BME280;64121;48.666;8.114;2023-04-16T09:18:38;100429.19;;;9.77;94.62
75538;BME280;64121;48.666;8.114;2023-04-16T09:21:04;100436.13;;;10.00;92.78
75538;BME280;64121;48.666;8.114;2023-04-16T09:23:29;100434.94;;;10.10;91.23
75538;BME280;64121;48.666;8.114;2023-04-16T09:25:55;100432.09;;;10.19;90.16
75538;BME280;64121;48.666;8.114;2023-04-16T09:28:41;100430.13;;;10.19;91.22
75538;BME280;64121;48.666;8.114;2023-04-16T09:31:10;100433.13;;;10.23;91.77
75538;BME280;64121;48.666;8.114;2023-04-16T09:33:38;100434.06;;;10.27;91.32
75538;BME280;64121;48.666;8.114;2023-04-16T09:36:04;100438.63;;;10.31;91.95
75538;BME280;64121;48.666;8.114;2023-04-16T09:38:44;100438.88;;;10.39;90.53
75538;BME280;64121;48.666;8.114;2023-04-16T09:41:10;100443.16;;;10.36;91.24
75538;BME280;64121;48.666;8.114;2023-04-16T09:43:35;100445.78;;;10.41;90.55
75538;BME280;64121;48.666;8.114;2023-04-16T09:46:03;100445.66;;;10.29;89.49
75538;BME280;64121;48.666;8.114;2023-04-16T09:48:29;100438.81;;;10.26;90.25
75538;BME280;64121;48.666;8.114;2023-04-16T09:50:56;100440.44;;;10.27;90.78
75538;BME280;64121;48.666;8.114;2023-04-16T09:53:25;100436.09;;;10.39;89.53
75538;BME280;64121;48.666;8.114;2023-04-16T09:55:51;100443.34;;;10.60;89.14
75538;BME280;64121;48.666;8.114;2023-04-16T09:58:17;100441.84;;;10.63;86.84
75538;BME280;64121;48.666;8.114;2023-04-16T10:00:43;100448.94;;;10.60;86.52
75538;BME280;64121;48.666;8.114;2023-04-16T10:03:08;100452.00;;;10.59;87.21
75538;BME280;64121;48.666;8.114;2023-04-16T10:05:33;100448.59;;;10.62;88.00
75538;BME280;64121;48.666;8.114;2023-04-16T10:08:00;100459.72;;;10.62;86.23
75538;BME280;64121;48.666;8.114;2023-04-16T10:10:25;100452.53;;;10.61;86.85
75538;BME280;64121;48.666;8.114;2023-04-16T10:12:51;100458.59;;;10.54;88.23
75538;BME280;64121;48.666;8.114;2023-04-16T10:15:17;100458.16;;;10.73;87.30
75538;BME280;64121;48.666;8.114;2023-04-16T10:17:43;100459.31;;;10.72;85.67
75538;BME280;64121;48.666;8.114;2023-04-16T10:20:09;100456.94;;;10.62;86.32
75538;BME280;64121;48.666;8.114;2023-04-16T10:22:34;100466.94;;;10.54;84.98
75538;BME280;64121;48.666;8.114;2023-04-16T10:25:02;100465.13;;;10.58;86.47
75538;BME280;64121;48.666;8.114;2023-04-16T10:27:28;100460.88;;;10.61;85.69
75538;BME280;64121;48.666;8.114;2023-04-16T10:29:54;100467.59;;;10.60;85.13
75538;BME280;64121;48.666;8.114;2023-04-16T10:32:19;100465.44;;;10.57;84.76
75538;BME280;64121;48.666;8.114;2023-04-16T10:34:46;100466.28;;;10.57;85.27
75538;BME280;64121;48.666;8.114;2023-04-16T10:37:12;100461.81;;;10.65;86.79
75538;BME280;64121;48.666;8.114;2023-04-16T10:39:37;100460.38;;;10.59;85.35
75538;BME280;64121;48.666;8.114;2023-04-16T10:42:08;100468.44;;;10.52;86.50
75538;BME280;64121;48.666;8.114;2023-04-16T10:44:33;100467.19;;;10.41;88.75
75538;BME280;64121;48.666;8.114;2023-04-16T10:46:59;100469.97;;;10.41;89.00
75538;BME280;64121;48.666;8.114;2023-04-16T10:49:25;100467.84;;;10.38;85.95
75538;BME280;64121;48.666;8.114;2023-04-16T10:51:54;100466.66;;;10.47;84.50
75538;BME280;64121;48.666;8.114;2023-04-16T10:54:22;100467.75;;;10.55;84.15
75538;BME280;64121;48.666;8.114;2023-04-16T10:56:49;100463.78;;;10.65;84.56
75538;BME280;64121;48.666;8.114;2023-04-16T10:59:18;100464.81;;;10.81;84.60
75538;BME280;64121;48.666;8.114;2023-04-16T11:01:45;100465.16;;;10.79;84.61
75538;BME280;64121;48.666;8.114;2023-04-16T11:04:28;100463.06;;;10.97;84.09
75538;BME280;64121;48.666;8.114;2023-04-16T11:07:02;100461.50;;;10.87;83.44
75538;BME280;64121;48.666;8.114;2023-04-16T11:10:04;100462.78;;;10.90;81.97
75538;BME280;64121;48.666;8.114;2023-04-16T11:12:33;100460.72;;;10.78;84.31
75538;BME280;64121;48.666;8.114;2023-04-16T11:15:02;100465.47;;;10.78;83.72
75538;BME280;64121;48.666;8.114;2023-04-16T11:17:31;100463.56;;;10.70;83.51
75538;BME280;64121;48.666;8.114;2023-04-16T11:19:57;100464.72;;;10.69;82.80
75538;BME280;64121;48.666;8.114;2023-04-16T11:22:23;100469.47;;;10.68;85.15
75538;BME280;64121;48.666;8.114;2023-04-16T11:24:53;100467.31;;;10.74;85.03
75538;BME280;64121;48.666;8.114;2023-04-16T11:27:18;100472.88;;;10.74;87.23
75538;BME280;64121;48.666;8.114;2023-04-16T11:29:44;100469.41;;;10.77;85.97
75538;BME280;64121;48.666;8.114;2023-04-16T11:32:19;100467.94;;;10.79;85.37
75538;BME280;64121;48.666;8.114;2023-04-16T11:34:45;100460.13;;;10.73;85.31
75538;BME280;64121;48.666;8.114;2023-04-16T11:37:10;100466.97;;;10.75;85.67
75538;BME280;64121;48.666;8.114;2023-04-16T11:39:46;100461.59;;;10.70;87.07
75538;BME280;64121;48.666;8.114;2023-04-16T11:42:18;100471.38;;;10.76;85.40
75538;BME280;64121;48.666;8.114;2023-04-16T11:44:43;100468.41;;;10.81;86.32
75538;BME280;64121;48.666;8.114;2023-04-16T11:47:08;100470.31;;;10.69;87.23
75538;BME280;64121;48.666;8.114;2023-04-16T11:49:35;100465.88;;;10.68;87.25
75538;BME280;64121;48.666;8.114;2023-04-16T11:52:00;100467.03;;;10.67;86.36
75538;BME280;64121;48.666;8.114;2023-04-16T11:54:26;100465.69;;;10.73;85.49
75538;BME280;64121;48.666;8.114;2023-04-16T11:56:52;100471.53;;;10.80;85.02
75538;BME280;64121;48.666;8.114;2023-04-16T11:59:19;100465.69;;;10.73;86.02
75538;BME280;64121;48.666;8.114;2023-04-16T12:01:46;100471.59;;;10.71;85.95
75538;BME280;64121;48.666;8.114;2023-04-16T12:04:12;100475.19;;;10.72;85.81
75538;BME280;64121;48.666;8.114;2023-04-16T12:06:39;100480.84;;;10.84;85.25
75538;BME280;64121;48.666;8.114;2023-04-16T12:09:24;100473.22;;;10.72;85.13
75538;BME280;64121;48.666;8.114;2023-04-16T12:11:49;100482.34;;;10.81;85.68
75538;BME280;64121;48.666;8.114;2023-04-16T12:14:15;100479.59;;;10.73;86.10
75538;BME280;64121;48.666;8.114;2023-04-16T12:16:40;100475.53;;;10.70;85.69
75538;BME280;64121;48.666;8.114;2023-04-16T12:19:09;100484.47;;;10.76;85.50
75538;BME280;64121;48.666;8.114;2023-04-16T12:21:41;100489.56;;;10.74;86.36
75538;BME280;64121;48.666;8.114;2023-04-16T12:24:08;100489.72;;;10.77;87.37
75538;BME280;64121;48.666;8.114;2023-04-16T12:26:42;100486.84;;;10.65;88.67
75538;BME280;64121;48.666;8.114;2023-04-16T12:29:15;100485.84;;;10.70;87.79
75538;BME280;64121;48.666;8.114;2023-04-16T12:31:41;100485.63;;;10.75;87.83
75538;BME280;64121;48.666;8.114;2023-04-16T12:34:06;100492.75;;;10.64;87.36
75538;BME280;64121;48.666;8.114;2023-04-16T12:36:32;100491.78;;;10.59;88.17
75538;BME280;64121;48.666;8.114;2023-04-16T12:38:59;100499.03;;;10.52;87.38
75538;BME280;64121;48.666;8.114;2023-04-16T12:41:24;100499.50;;;10.16;87.98
75538;BME280;64121;48.666;8.114;2023-04-16T12:43:49;100500.22;;;10.04;88.47
75538;BME280;64121;48.666;8.114;2023-04-16T12:46:15;100507.38;;;10.14;89.43
75538;BME280;64121;48.666;8.114;2023-04-16T12:48:40;100510.03;;;10.01;90.99
75538;BME280;64121;48.666;8.114;2023-04-16T12:51:05;100509.31;;;10.22;89.67
75538;BME280;64121;48.666;8.114;2023-04-16T12:53:31;100509.00;;;10.15;90.07